sensor_id;sensor_type;location;lat;lon;timestamp;pressure;altitude;pressure_sealevel;temperature;humidity
69780;BME280;57052;55.602;38.096;2023-01-10T00:00:20;102624.72;;;-16.76;59.89
69780;BME280;57052;55.602;38.096;2023-01-10T00:02:45;102622.94;;;-16.74;60.90
69780;BME280;57052;55.602;38.096;2023-01-10T00:05:11;102612.63;;;-16.76;59.77
69780;BME280;57052;55.602;38.096;2023-01-10T00:07:36;102618.63;;;-16.74;59.88
69780;BME280;57052;55.602;38.096;2023-01-10T00:10:02;102621.88;;;-16.67;59.53
69780;BME280;57052;55.602;38.096;2023-01-10T00:12:28;102620.16;;;-16.67;59.98
69780;BME280;57052;55.602;38.096;2023-01-10T00:15:12;102624.41;;;-16.64;60.86
69780;BME280;57052;55.602;38.096;2023-01-10T00:17:38;102616.69;;;-16.66;60.65
69780;BME280;57052;55.602;38.096;2023-01-10T00:20:05;102620.09;;;-16.64;61.06
69780;BME280;57052;55.602;38.096;2023-01-10T00:22:30;102622.69;;;-16.65;60.32
69780;BME280;57052;55.602;38.096;2023-01-10T00:24:56;102620.09;;;-16.65;59.55
69780;BME280;57052;55.602;38.096;2023-01-10T00:27:21;102625.22;;;-16.62;59.75
69780;BME280;57052;55.602;38.096;2023-01-10T00:29:48;102620.94;;;-16.63;60.50
69780;BME280;57052;55.602;38.096;2023-01-10T00:32:17;102602.06;;;-16.68;61.26
69780;BME280;57052;55.602;38.096;2023-01-10T00:34:42;102615.78;;;-16.65;60.92
69780;BME280;57052;55.602;38.096;2023-01-10T00:37:08;102616.56;;;-16.61;59.25
69780;BME280;57052;55.602;38.096;2023-01-10T00:39:34;102621.69;;;-16.60;60.77
69780;BME280;57052;55.602;38.096;2023-01-10T00:41:59;102619.09;;;-16.58;59.48
69780;BME280;57052;55.602;38.096;2023-01-10T00:44:43;102613.13;;;-16.62;60.37
69780;BME280;57052;55.602;38.096;2023-01-10T00:47:12;102608.75;;;-16.60;60.13
69780;BME280;57052;55.602;38.096;2023-01-10T00:49:38;102589.84;;;-16.63;60.68
69780;BME280;57052;55.602;38.096;2023-01-10T00:52:04;102582.34;;;-16.74;59.98
69780;BME280;57052;55.602;38.096;2023-01-10T00:54:30;102589.94;;;-16.66;60.13
69780;BME280;57052;55.602;38.096;2023-01-10T00:56:56;102582.09;;;-16.65;60.43
69780;BME280;57052;55.602;38.096;2023-01-10T00:59:22;102582.97;;;-16.64;60.79
69780;BME280;57052;55.602;38.096;2023-01-10T01:01:49;102586.41;;;-16.64;60.83
69780;BME280;57052;55.602;38.096;2023-01-10T01:04:14;102582.03;;;-16.62;61.27
69780;BME280;57052;55.602;38.096;2023-01-10T01:06:45;102582.03;;;-16.62;60.06
69780;BME280;57052;55.602;38.096;2023-01-10T01:09:12;102575.91;;;-16.59;59.79
69780;BME280;57052;55.602;38.096;2023-01-10T01:11:38;102568.28;;;-16.65;59.97
69780;BME280;57052;55.602;38.096;2023-01-10T01:14:03;102587.88;;;-16.55;60.92
69780;BME280;57052;55.602;38.096;2023-01-10T01:16:29;102573.19;;;-16.53;61.30
69780;BME280;57052;55.602;38.096;2023-01-10T01:18:55;102565.44;;;-16.55;61.26
69780;BME280;57052;55.602;38.096;2023-01-10T01:21:21;102569.44;;;-16.45;60.78
69780;BME280;57052;55.602;38.096;2023-01-10T01:23:46;102551.31;;;-16.45;60.85
69780;BME280;57052;55.602;38.096;2023-01-10T01:26:12;102560.75;;;-16.42;61.09
69780;BME280;57052;55.602;38.096;2023-01-10T01:28:37;102567.63;;;-16.41;61.28
69780;BME280;57052;55.602;38.096;2023-01-10T01:31:09;102566.72;;;-16.40;59.77
69780;BME280;57052;55.602;38.096;2023-01-10T01:33:35;102561.59;;;-16.42;60.73
69780;BME280;57052;55.602;38.096;2023-01-10T01:36:01;102556.34;;;-16.38;60.21
69780;BME280;57052;55.602;38.096;2023-01-10T01:38:27;102564.03;;;-16.35;60.34
69780;BME280;57052;55.602;38.096;2023-01-10T01:40:52;102558.00;;;-16.36;60.02
69780;BME280;57052;55.602;38.096;2023-01-10T01:43:26;102542.34;;;-16.33;61.33
69780;BME280;57052;55.602;38.096;2023-01-10T01:45:53;102552.63;;;-16.30;60.63
69780;BME280;57052;55.602;38.096;2023-01-10T01:48:29;102542.19;;;-16.27;60.55
69780;BME280;57052;55.602;38.096;2023-01-10T01:53:46;102530.75;;;-16.20;61.15
69780;BME280;57052;55.602;38.096;2023-01-10T01:56:19;102516.09;;;-16.21;59.79
69780;BME280;57052;55.602;38.096;2023-01-10T01:59:08;102520.56;;;-16.26;60.46
69780;BME280;57052;55.602;38.096;2023-01-10T02:01:38;102500.00;;;-16.32;60.34
69780;BME280;57052;55.602;38.096;2023-01-10T02:04:18;102528.16;;;-16.20;59.92
69780;BME280;57052;55.602;38.096;2023-01-10T02:06:47;102521.38;;;-16.24;61.28
69780;BME280;57052;55.602;38.096;2023-01-10T02:12:03;102539.09;;;-16.10;60.83
69780;BME280;57052;55.602;38.096;2023-01-10T02:14:31;102542.56;;;-16.10;59.89
69780;BME280;57052;55.602;38.096;2023-01-10T02:16:58;102541.66;;;-16.09;60.95
69780;BME280;57052;55.602;38.096;2023-01-10T02:30:55;102565.66;;;-16.02;60.01
69780;BME280;57052;55.602;38.096;2023-01-10T02:33:34;102562.13;;;-16.00;60.65
69780;BME280;57052;55.602;38.096;2023-01-10T02:36:30;102568.31;;;-16.04;60.82
69780;BME280;57052;55.602;38.096;2023-01-10T02:39:10;102566.38;;;-15.97;60.54
69780;BME280;57052;55.602;38.096;2023-01-10T02:44:27;102568.97;;;-15.96;60.23
69780;BME280;57052;55.602;38.096;2023-01-10T02:46:55;102560.47;;;-16.01;60.81
69780;BME280;57052;55.602;38.096;2023-01-10T02:49:20;102575.75;;;-15.92;61.61
69780;BME280;57052;55.602;38.096;2023-01-10T02:51:46;102566.38;;;-15.97;60.54
69780;BME280;57052;55.602;38.096;2023-01-10T02:54:32;102562.59;;;-15.86;61.33
69780;BME280;57052;55.602;38.096;2023-01-10T03:06:32;102544.78;;;-15.68;61.47
69780;BME280;57052;55.602;38.096;2023-01-10T03:08:53;102534.56;;;-15.73;61.45
69780;BME280;57052;55.602;38.096;2023-01-10T03:11:26;102538.81;;;-15.70;61.26
69780;BME280;57052;55.602;38.096;2023-01-10T03:14:07;102546.31;;;-15.61;61.56
69780;BME280;57052;55.602;38.096;2023-01-10T03:16:36;102548.91;;;-15.61;60.60
69780;BME280;57052;55.602;38.096;2023-01-10T03:19:11;102551.41;;;-15.58;60.93
69780;BME280;57052;55.602;38.096;2023-01-10T03:21:39;102557.31;;;-15.53;61.24
69780;BME280;57052;55.602;38.096;2023-01-10T03:24:12;102561.56;;;-15.52;61.47
69780;BME280;57052;55.602;38.096;2023-01-10T03:27:28;102565.03;;;-15.52;60.22
69780;BME280;57052;55.602;38.096;2023-01-10T03:29:50;102557.31;;;-15.53;60.65
69780;BME280;57052;55.602;38.096;2023-01-10T03:32:20;102565.75;;;-15.47;61.67
69780;BME280;57052;55.602;38.096;2023-01-10T03:34:48;102570.72;;;-15.41;60.94
69780;BME280;57052;55.602;38.096;2023-01-10T03:37:23;102564.69;;;-15.41;60.50
69780;BME280;57052;55.602;38.096;2023-01-10T03:40:25;102562.81;;;-15.38;60.49
69780;BME280;57052;55.602;38.096;2023-01-10T03:43:03;102557.69;;;-15.39;60.74
69780;BME280;57052;55.602;38.096;2023-01-10T03:46:01;102549.13;;;-15.43;61.36
69780;BME280;57052;55.602;38.096;2023-01-10T03:48:33;102557.78;;;-15.42;60.75
69780;BME280;57052;55.602;38.096;2023-01-10T03:51:02;102559.41;;;-15.38;61.42
69780;BME280;57052;55.602;38.096;2023-01-10T03:53:31;102562.03;;;-15.40;61.08
69780;BME280;57052;55.602;38.096;2023-01-10T03:55:57;102572.25;;;-15.35;61.27
69780;BME280;57052;55.602;38.096;2023-01-10T03:58:24;102568.78;;;-15.34;61.36
69780;BME280;57052;55.602;38.096;2023-01-10T04:00:50;102572.16;;;-15.32;61.49
69780;BME280;57052;55.602;38.096;2023-01-10T04:03:16;102573.03;;;-15.32;61.09
69780;BME280;57052;55.602;38.096;2023-01-10T04:05:41;102566.78;;;-15.26;60.99
69780;BME280;57052;55.602;38.096;2023-01-10T04:08:07;102559.72;;;-15.21;61.33
69780;BME280;57052;55.602;38.096;2023-01-10T04:10:33;102560.41;;;-15.16;61.72
69780;BME280;57052;55.602;38.096;2023-01-10T04:12:59;102559.31;;;-15.09;61.09
69780;BME280;57052;55.602;38.096;2023-01-10T04:15:25;102556.66;;;-15.08;61.33
69780;BME280;57052;55.602;38.096;2023-01-10T04:17:51;102563.63;;;-15.08;61.27
69780;BME280;57052;55.602;38.096;2023-01-10T04:20:17;102547.44;;;-15.16;61.15
69780;BME280;57052;55.602;38.096;2023-01-10T04:22:45;102561.84;;;-15.08;61.16
69780;BME280;57052;55.602;38.096;2023-01-10T04:25:11;102552.22;;;-15.04;61.08
69780;BME280;57052;55.602;38.096;2023-01-10T04:27:36;102551.34;;;-15.03;60.77
69780;BME280;57052;55.602;38.096;2023-01-10T04:30:02;102560.72;;;-14.99;61.53
69780;BME280;57052;55.602;38.096;2023-01-10T04:32:29;102539.31;;;-15.07;61.04
69780;BME280;57052;55.602;38.096;2023-01-10T04:34:55;102559.00;;;-15.00;61.29
69780;BME280;57052;55.602;38.096;2023-01-10T04:37:20;102553.94;;;-15.03;60.82
69780;BME280;57052;55.602;38.096;2023-01-10T04:39:46;102379.81;;;-16.02;60.64
69780;BME280;57052;55.602;38.096;2023-01-10T04:42:11;102554.50;;;-14.95;60.96
69780;BME280;57052;55.602;38.096;2023-01-10T04:44:38;102567.50;;;-14.95;60.69
69780;BME280;57052;55.602;38.096;2023-01-10T04:47:03;102558.06;;;-14.97;60.79
69780;BME280;57052;55.602;38.096;2023-01-10T04:49:29;102565.72;;;-14.93;60.99
69780;BME280;57052;55.602;38.096;2023-01-10T04:51:55;102556.31;;;-14.97;61.07
69780;BME280;57052;55.602;38.096;2023-01-10T04:54:21;102578.50;;;-14.87;61.06
69780;BME280;57052;55.602;38.096;2023-01-10T04:56:47;102582.03;;;-14.89;60.79
69780;BME280;57052;55.602;38.096;2023-01-10T04:59:13;102593.22;;;-14.87;61.31
69780;BME280;57052;55.602;38.096;2023-01-10T05:01:39;102595.69;;;-14.83;61.17
69780;BME280;57052;55.602;38.096;2023-01-10T05:04:05;102603.59;;;-14.86;61.05
69780;BME280;57052;55.602;38.096;2023-01-10T05:06:31;102599.97;;;-14.82;60.95
69780;BME280;57052;55.602;38.096;2023-01-10T05:08:57;102603.38;;;-14.80;60.96
69780;BME280;57052;55.602;38.096;2023-01-10T05:11:23;102580.22;;;-14.87;60.87
69780;BME280;57052;55.602;38.096;2023-01-10T05:13:49;102589.69;;;-14.85;60.56
69780;BME280;57052;55.602;38.096;2023-01-10T05:16:15;102608.38;;;-14.74;60.54
69780;BME280;57052;55.602;38.096;2023-01-10T05:18:41;102611.84;;;-14.73;61.28
69780;BME280;57052;55.602;38.096;2023-01-10T05:21:09;102622.13;;;-14.70;61.06
69780;BME280;57052;55.602;38.096;2023-01-10T05:23:35;102618.53;;;-14.66;61.18
69780;BME280;57052;55.602;38.096;2023-01-10T05:26:13;102607.25;;;-14.65;60.94
69780;BME280;57052;55.602;38.096;2023-01-10T05:28:40;102620.88;;;-14.59;61.16
69780;BME280;57052;55.602;38.096;2023-01-10T05:31:07;102621.75;;;-14.60;60.66
69780;BME280;57052;55.602;38.096;2023-01-10T05:33:33;102623.41;;;-14.57;61.23
69780;BME280;57052;55.602;38.096;2023-01-10T05:36:03;102617.31;;;-14.56;61.10
69780;BME280;57052;55.602;38.096;2023-01-10T05:38:30;102622.44;;;-14.55;61.06
69780;BME280;57052;55.602;38.096;2023-01-10T05:40:57;102621.50;;;-14.52;60.83
69780;BME280;57052;55.602;38.096;2023-01-10T05:43:23;102614.50;;;-14.50;61.48
69780;BME280;57052;55.602;38.096;2023-01-10T05:45:49;102608.50;;;-14.52;61.18
69780;BME280;57052;55.602;38.096;2023-01-10T05:48:15;102622.34;;;-14.52;60.61
69780;BME280;57052;55.602;38.096;2023-01-10T05:50:41;102612.28;;;-14.61;60.77
69780;BME280;57052;55.602;38.096;2023-01-10T05:53:07;102626.44;;;-14.45;61.20
69780;BME280;57052;55.602;38.096;2023-01-10T05:55:33;102616.41;;;-14.55;60.93
69780;BME280;57052;55.602;38.096;2023-01-10T05:57:58;102621.47;;;-14.51;60.94
69780;BME280;57052;55.602;38.096;2023-01-10T06:00:24;102645.25;;;-14.36;60.95
69780;BME280;57052;55.602;38.096;2023-01-10T06:02:52;102646.00;;;-14.33;61.12
69780;BME280;57052;55.602;38.096;2023-01-10T06:05:18;102645.84;;;-14.30;60.68
69780;BME280;57052;55.602;38.096;2023-01-10T06:07:43;102645.75;;;-14.27;61.02
69780;BME280;57052;55.602;38.096;2023-01-10T06:10:09;102647.34;;;-14.23;61.02
69780;BME280;57052;55.602;38.096;2023-01-10T06:12:38;102653.28;;;-14.19;61.28
69780;BME280;57052;55.602;38.096;2023-01-10T06:15:05;102665.22;;;-14.14;61.32
69780;BME280;57052;55.602;38.096;2023-01-10T06:17:31;102666.94;;;-14.13;60.96
69780;BME280;57052;55.602;38.096;2023-01-10T06:19:57;102670.28;;;-14.09;61.09
69780;BME280;57052;55.602;38.096;2023-01-10T06:22:22;102677.91;;;-14.05;61.06
69780;BME280;57052;55.602;38.096;2023-01-10T06:24:48;102677.88;;;-14.03;61.15
69780;BME280;57052;55.602;38.096;2023-01-10T06:27:13;102671.81;;;-14.04;60.84
69780;BME280;57052;55.602;38.096;2023-01-10T06:29:39;102682.75;;;-13.94;60.76
69780;BME280;57052;55.602;38.096;2023-01-10T06:32:04;102682.72;;;-13.93;60.88
69780;BME280;57052;55.602;38.096;2023-01-10T06:34:30;102699.81;;;-13.86;61.12
69780;BME280;57052;55.602;38.096;2023-01-10T06:36:56;102673.38;;;-13.98;61.36
69780;BME280;57052;55.602;38.096;2023-01-10T06:39:22;102714.31;;;-13.79;61.33
69780;BME280;57052;55.602;38.096;2023-01-10T06:41:48;102709.03;;;-13.77;61.06
69780;BME280;57052;55.602;38.096;2023-01-10T06:44:13;102716.75;;;-13.74;61.14
69780;BME280;57052;55.602;38.096;2023-01-10T06:46:39;102703.81;;;-13.77;60.28
69780;BME280;57052;55.602;38.096;2023-01-10T06:49:05;102722.56;;;-13.67;60.85
69780;BME280;57052;55.602;38.096;2023-01-10T06:51:30;102716.25;;;-13.60;60.90
69780;BME280;57052;55.602;38.096;2023-01-10T06:53:56;102719.66;;;-13.58;60.65
69780;BME280;57052;55.602;38.096;2023-01-10T06:56:21;102727.22;;;-13.52;61.19
69780;BME280;57052;55.602;38.096;2023-01-10T06:58:48;102724.59;;;-13.51;60.58
69780;BME280;57052;55.602;38.096;2023-01-10T07:01:16;102727.97;;;-13.49;61.02
69780;BME280;57052;55.602;38.096;2023-01-10T07:03:42;102721.88;;;-13.48;60.59
69780;BME280;57052;55.602;38.096;2023-01-10T07:06:08;102729.47;;;-13.42;60.06
69780;BME280;57052;55.602;38.096;2023-01-10T07:08:42;102725.03;;;-13.40;60.88
69780;BME280;57052;55.602;38.096;2023-01-10T07:11:08;102721.44;;;-13.36;60.06
69780;BME280;57052;55.602;38.096;2023-01-10T07:13:34;102710.16;;;-13.36;60.36
69780;BME280;57052;55.602;38.096;2023-01-10T07:16:04;102716.91;;;-13.31;60.48
69780;BME280;57052;55.602;38.096;2023-01-10T07:18:31;102713.22;;;-13.25;60.36
69780;BME280;57052;55.602;38.096;2023-01-10T07:20:57;102710.44;;;-13.21;60.99
69780;BME280;57052;55.602;38.096;2023-01-10T07:23:22;102708.69;;;-13.20;59.61
69780;BME280;57052;55.602;38.096;2023-01-10T07:25:48;102718.84;;;-13.13;60.45
69780;BME280;57052;55.602;38.096;2023-01-10T07:28:14;102664.13;;;-13.36;59.46
69780;BME280;57052;55.602;38.096;2023-01-10T07:30:39;102692.03;;;-13.16;60.46
69780;BME280;57052;55.602;38.096;2023-01-10T07:33:05;102704.53;;;-13.02;59.91
69780;BME280;57052;55.602;38.096;2023-01-10T07:35:31;102697.75;;;-13.06;60.53
69780;BME280;57052;55.602;38.096;2023-01-10T07:37:58;102709.59;;;-12.99;60.18
69780;BME280;57052;55.602;38.096;2023-01-10T07:40:25;102706.94;;;-12.98;59.50
69780;BME280;57052;55.602;38.096;2023-01-10T07:42:57;102712.94;;;-12.96;59.14
69780;BME280;57052;55.602;38.096;2023-01-10T07:45:23;102712.03;;;-12.95;59.26
69780;BME280;57052;55.602;38.096;2023-01-10T07:47:57;102705.88;;;-12.92;59.81
69780;BME280;57052;55.602;38.096;2023-01-10T07:50:24;102713.53;;;-12.89;60.57
69780;BME280;57052;55.602;38.096;2023-01-10T07:52:49;102715.19;;;-12.87;59.67
69780;BME280;57052;55.602;38.096;2023-01-10T07:55:15;102712.66;;;-12.88;60.52
69780;BME280;57052;55.602;38.096;2023-01-10T07:57:42;102711.69;;;-12.86;60.64
69780;BME280;57052;55.602;38.096;2023-01-10T08:00:08;102709.00;;;-12.84;60.71
69780;BME280;57052;55.602;38.096;2023-01-10T08:02:34;102707.50;;;-12.90;60.12
69780;BME280;57052;55.602;38.096;2023-01-10T08:04:59;102717.56;;;-12.81;60.29
69780;BME280;57052;55.602;38.096;2023-01-10T08:07:25;102690.25;;;-12.94;60.38
69780;BME280;57052;55.602;38.096;2023-01-10T08:09:52;102707.06;;;-12.79;59.68
69780;BME280;57052;55.602;38.096;2023-01-10T08:12:20;102711.38;;;-12.78;59.40
69780;BME280;57052;55.602;38.096;2023-01-10T08:14:45;102717.16;;;-12.70;59.36
69780;BME280;57052;55.602;38.096;2023-01-10T08:17:11;102716.19;;;-12.68;59.50
69780;BME280;57052;55.602;38.096;2023-01-10T08:19:37;102703.97;;;-12.67;59.29
69780;BME280;57052;55.602;38.096;2023-01-10T08:22:02;102718.59;;;-12.63;59.31
69780;BME280;57052;55.602;38.096;2023-01-10T08:24:28;102720.44;;;-12.65;59.01
69780;BME280;57052;55.602;38.096;2023-01-10T08:26:57;102717.63;;;-12.61;60.28
69780;BME280;57052;55.602;38.096;2023-01-10T08:29:23;102720.16;;;-12.59;60.12
69780;BME280;57052;55.602;38.096;2023-01-10T08:31:48;102729.59;;;-12.55;59.48
69780;BME280;57052;55.602;38.096;2023-01-10T08:34:14;102719.88;;;-12.52;60.25
69780;BME280;57052;55.602;38.096;2023-01-10T08:36:40;102719.66;;;-12.47;60.41
69780;BME280;57052;55.602;38.096;2023-01-10T08:39:05;102723.09;;;-12.45;60.08
69780;BME280;57052;55.602;38.096;2023-01-10T08:41:31;102726.41;;;-12.42;60.37
69780;BME280;57052;55.602;38.096;2023-01-10T08:43:57;102708.16;;;-12.42;60.56
69780;BME280;57052;55.602;38.096;2023-01-10T08:46:22;102719.91;;;-12.31;60.59
69780;BME280;57052;55.602;38.096;2023-01-10T08:48:48;102721.50;;;-12.27;59.66
69780;BME280;57052;55.602;38.096;2023-01-10T08:51:15;102723.19;;;-12.26;59.98
69780;BME280;57052;55.602;38.096;2023-01-10T08:53:41;102713.72;;;-12.29;60.13
69780;BME280;57052;55.602;38.096;2023-01-10T08:56:07;102721.97;;;-12.18;60.04
69780;BME280;57052;55.602;38.096;2023-01-10T08:58:33;102726.09;;;-12.12;59.60
69780;BME280;57052;55.602;38.096;2023-01-10T09:01:02;102725.03;;;-12.08;59.48
69780;BME280;57052;55.602;38.096;2023-01-10T09:03:28;102725.78;;;-12.05;60.15
69780;BME280;57052;55.602;38.096;2023-01-10T09:05:54;102709.06;;;-12.01;59.07
69780;BME280;57052;55.602;38.096;2023-01-10T09:08:19;102714.19;;;-11.99;59.23
69780;BME280;57052;55.602;38.096;2023-01-10T09:10:45;102722.75;;;-11.96;59.94
69780;BME280;57052;55.602;38.096;2023-01-10T09:13:12;102696.91;;;-12.02;59.41
69780;BME280;57052;55.602;38.096;2023-01-10T09:15:38;102707.78;;;-11.92;58.73
69780;BME280;57052;55.602;38.096;2023-01-10T09:18:05;102683.72;;;-11.99;60.09
69780;BME280;57052;55.602;38.096;2023-01-10T09:20:34;102704.94;;;-11.86;58.90
69780;BME280;57052;55.602;38.096;2023-01-10T09:23:04;102711.72;;;-11.82;60.17
69780;BME280;57052;55.602;38.096;2023-01-10T09:25:31;102701.22;;;-11.81;59.60
69780;BME280;57052;55.602;38.096;2023-01-10T09:27:58;102703.41;;;-11.71;59.00
69780;BME280;57052;55.602;38.096;2023-01-10T09:30:24;102704.00;;;-11.65;58.87
69780;BME280;57052;55.602;38.096;2023-01-10T09:32:51;102700.56;;;-11.67;59.43
69780;BME280;57052;55.602;38.096;2023-01-10T09:35:17;102701.16;;;-11.60;59.08
69780;BME280;57052;55.602;38.096;2023-01-10T09:37:42;102704.44;;;-11.55;59.50
69780;BME280;57052;55.602;38.096;2023-01-10T09:40:12;102694.03;;;-11.57;59.69
69780;BME280;57052;55.602;38.096;2023-01-10T09:43:04;102700.63;;;-11.48;59.04
69780;BME280;57052;55.602;38.096;2023-01-10T09:45:59;102696.81;;;-11.41;58.43
69780;BME280;57052;55.602;38.096;2023-01-10T09:51:27;102692.88;;;-11.31;59.27
69780;BME280;57052;55.602;38.096;2023-01-10T09:53:57;102674.78;;;-11.36;59.72
69780;BME280;57052;55.602;38.096;2023-01-10T09:56:24;102685.63;;;-11.25;59.90
69780;BME280;57052;55.602;38.096;2023-01-10T09:58:50;102693.25;;;-11.20;58.72
69780;BME280;57052;55.602;38.096;2023-01-10T10:01:20;102681.22;;;-11.24;59.10
69780;BME280;57052;55.602;38.096;2023-01-10T10:06:15;102698.03;;;-11.11;59.27
69780;BME280;57052;55.602;38.096;2023-01-10T10:08:43;102690.06;;;-11.08;59.21
69780;BME280;57052;55.602;38.096;2023-01-10T10:24:52;102693.28;;;-10.84;58.96
69780;BME280;57052;55.602;38.096;2023-01-10T10:27:42;102693.09;;;-10.80;58.31
69780;BME280;57052;55.602;38.096;2023-01-10T10:30:35;102690.94;;;-10.72;59.47
69780;BME280;57052;55.602;38.096;2023-01-10T10:33:32;102698.28;;;-10.61;58.97
69780;BME280;57052;55.602;38.096;2023-01-10T10:36:31;102684.53;;;-10.65;59.44
69780;BME280;57052;55.602;38.096;2023-01-10T10:38:56;102687.38;;;-10.52;59.36
69780;BME280;57052;55.602;38.096;2023-01-10T10:41:45;102694.00;;;-10.45;59.38
69780;BME280;57052;55.602;38.096;2023-01-10T10:44:34;102691.31;;;-10.43;58.39
69780;BME280;57052;55.602;38.096;2023-01-10T10:47:01;102691.25;;;-10.42;58.87
69780;BME280;57052;55.602;38.096;2023-01-10T10:49:36;102692.88;;;-10.39;58.58
69780;BME280;57052;55.602;38.096;2023-01-10T10:52:16;102684.09;;;-10.38;58.81
69780;BME280;57052;55.602;38.096;2023-01-10T10:54:44;102680.47;;;-10.36;59.07
69780;BME280;57052;55.602;38.096;2023-01-10T10:57:11;102684.78;;;-10.35;59.28
69780;BME280;57052;55.602;38.096;2023-01-10T10:59:37;102681.94;;;-10.30;58.75
69780;BME280;57052;55.602;38.096;2023-01-10T11:02:23;102677.63;;;-10.31;59.12
69780;BME280;57052;55.602;38.096;2023-01-10T11:04:51;102680.09;;;-10.28;58.78
69780;BME280;57052;55.602;38.096;2023-01-10T11:07:18;102676.38;;;-10.24;59.12
69780;BME280;57052;55.602;38.096;2023-01-10T11:09:46;102671.94;;;-10.22;59.18
69780;BME280;57052;55.602;38.096;2023-01-10T11:12:31;102680.56;;;-10.20;58.70
69780;BME280;57052;55.602;38.096;2023-01-10T11:14:57;102674.22;;;-10.16;59.23
69780;BME280;57052;55.602;38.096;2023-01-10T11:17:26;102675.84;;;-10.14;59.00
69780;BME280;57052;55.602;38.096;2023-01-10T11:22:26;102675.09;;;-10.16;58.49
69780;BME280;57052;55.602;38.096;2023-01-10T11:24:55;102670.69;;;-10.15;59.00
69780;BME280;57052;55.602;38.096;2023-01-10T11:27:25;102674.19;;;-10.15;59.03
69780;BME280;57052;55.602;38.096;2023-01-10T11:29:57;102666.06;;;-10.10;58.94
69780;BME280;57052;55.602;38.096;2023-01-10T11:32:31;102658.38;;;-10.13;58.97
69780;BME280;57052;55.602;38.096;2023-01-10T11:35:03;102671.13;;;-10.07;59.27
69780;BME280;57052;55.602;38.096;2023-01-10T11:37:34;102659.97;;;-10.11;59.22
69780;BME280;57052;55.602;38.096;2023-01-10T11:40:21;102674.66;;;-10.08;58.12
69780;BME280;57052;55.602;38.096;2023-01-10T11:42:50;102675.44;;;-10.06;59.05
69780;BME280;57052;55.602;38.096;2023-01-10T11:47:43;102687.63;;;-10.05;58.93
69780;BME280;57052;55.602;38.096;2023-01-10T11:50:18;102699.75;;;-10.04;58.81
69780;BME280;57052;55.602;38.096;2023-01-10T11:52:45;102683.91;;;-10.01;59.16
69780;BME280;57052;55.602;38.096;2023-01-10T11:55:24;102685.59;;;-10.00;58.10
69780;BME280;57052;55.602;38.096;2023-01-10T12:00:54;102686.53;;;-10.01;57.88
69780;BME280;57052;55.602;38.096;2023-01-10T12:03:21;102690.84;;;-10.00;58.38
69780;BME280;57052;55.602;38.096;2023-01-10T12:05:57;102676.53;;;-10.10;58.18
69780;BME280;57052;55.602;38.096;2023-01-10T12:11:02;102699.75;;;-10.04;58.71
69780;BME280;57052;55.602;38.096;2023-01-10T12:13:41;102696.38;;;-10.06;58.53
69780;BME280;57052;55.602;38.096;2023-01-10T12:16:24;102709.25;;;-10.02;57.99
69780;BME280;57052;55.602;38.096;2023-01-10T12:18:52;102705.72;;;-10.01;58.56
69780;BME280;57052;55.602;38.096;2023-01-10T12:21:33;102704.00;;;-10.02;58.17
69780;BME280;57052;55.602;38.096;2023-01-10T12:24:05;102714.66;;;-10.05;58.87
69780;BME280;57052;55.602;38.096;2023-01-10T12:26:34;102704.84;;;-10.01;58.55
69780;BME280;57052;55.602;38.096;2023-01-10T12:29:11;102699.00;;;-10.06;57.75
69780;BME280;57052;55.602;38.096;2023-01-10T12:31:40;102705.72;;;-10.01;58.37
69780;BME280;57052;55.602;38.096;2023-01-10T12:34:21;102696.38;;;-10.06;57.71
69780;BME280;57052;55.602;38.096;2023-01-10T12:37:21;102711.19;;;-10.05;57.65
69780;BME280;57052;55.602;38.096;2023-01-10T12:39:54;102707.72;;;-10.06;58.70
69780;BME280;57052;55.602;38.096;2023-01-10T12:45:52;102711.66;;;-10.14;58.31
69780;BME280;57052;55.602;38.096;2023-01-10T12:51:05;102712.59;;;-10.15;58.01
69780;BME280;57052;55.602;38.096;2023-01-10T12:53:38;102730.78;;;-10.12;58.73
69780;BME280;57052;55.602;38.096;2023-01-10T12:56:10;102734.31;;;-10.13;58.56
69780;BME280;57052;55.602;38.096;2023-01-10T12:58:40;102719.50;;;-10.14;58.67
69780;BME280;57052;55.602;38.096;2023-01-10T13:01:17;102724.06;;;-10.18;58.18
69780;BME280;57052;55.602;38.096;2023-01-10T13:03:45;102722.44;;;-10.20;58.64
69780;BME280;57052;55.602;38.096;2023-01-10T13:06:33;102731.31;;;-10.23;57.74
69780;BME280;57052;55.602;38.096;2023-01-10T13:09:02;102723.06;;;-10.32;56.78
69780;BME280;57052;55.602;38.096;2023-01-10T13:11:34;102728.91;;;-10.27;58.51
69780;BME280;57052;55.602;38.096;2023-01-10T13:14:04;102727.13;;;-10.27;58.27
69780;BME280;57052;55.602;38.096;2023-01-10T13:21:35;102734.69;;;-10.21;58.67
69780;BME280;57052;55.602;38.096;2023-01-10T13:24:03;102741.63;;;-10.20;58.89
69780;BME280;57052;55.602;38.096;2023-01-10T13:26:52;102724.13;;;-10.19;58.58
69780;BME280;57052;55.602;38.096;2023-01-10T13:29:41;102729.31;;;-10.18;59.07
69780;BME280;57052;55.602;38.096;2023-01-10T13:32:26;102722.97;;;-10.31;57.84
69780;BME280;57052;55.602;38.096;2023-01-10T13:34:52;102723.44;;;-10.23;58.76
69780;BME280;57052;55.602;38.096;2023-01-10T13:37:28;102734.06;;;-10.26;57.45
69780;BME280;57052;55.602;38.096;2023-01-10T13:39:57;102728.06;;;-10.28;58.58
69780;BME280;57052;55.602;38.096;2023-01-10T13:57:54;102704.72;;;-10.32;57.74
69780;BME280;57052;55.602;38.096;2023-01-10T14:00:40;102721.28;;;-10.32;58.85
69780;BME280;57052;55.602;38.096;2023-01-10T14:03:56;102726.53;;;-10.32;58.54
69780;BME280;57052;55.602;38.096;2023-01-10T14:09:04;102701.34;;;-10.34;58.07
69780;BME280;57052;55.602;38.096;2023-01-10T14:14:24;102698.16;;;-10.41;57.66